createdAt,value
2022-09-22T00:01:07.179Z,73.20
2022-09-22T00:03:57.674Z,72.30
2022-09-22T00:06:47.638Z,72.10
2022-09-22T00:09:34.916Z,72.10
2022-09-22T00:12:22.062Z,72.40
2022-09-22T00:15:11.908Z,72.90
2022-09-22T00:17:59.287Z,73.50
2022-09-22T00:20:46.569Z,73.10
2022-09-22T00:23:33.782Z,73.10
2022-09-22T00:26:23.678Z,73.10
2022-09-22T00:29:14.504Z,72.50
2022-09-22T00:32:07.361Z,71.90
2022-09-22T00:34:54.879Z,71.90
2022-09-22T00:37:42.166Z,72.10
2022-09-22T00:40:29.763Z,72.30
2022-09-22T00:43:21.546Z,72.50
2022-09-22T00:46:19.307Z,72.80
2022-09-22T00:49:09.966Z,73.30
2022-09-22T00:51:57.415Z,72.50
2022-09-22T00:54:44.812Z,72.50
2022-09-22T00:57:35.940Z,72.80
2022-09-22T01:00:23.352Z,73.10
2022-09-22T01:03:16.910Z,73.10
2022-09-22T01:06:09.450Z,73.20
2022-09-22T01:08:57.920Z,73.00
2022-09-22T01:11:45.316Z,73.00
2022-09-22T01:14:52.898Z,72.90
2022-09-22T01:18:02.267Z,73.70
2022-09-22T01:21:20.459Z,73.50
2022-09-22T01:24:50.872Z,73.60
2022-09-22T01:28:18.017Z,74.10
2022-09-22T01:31:11.868Z,73.40
2022-09-22T01:34:08.854Z,73.00
2022-09-22T01:37:09.476Z,73.70
2022-09-22T01:40:02.601Z,74.00
2022-09-22T01:42:56.811Z,73.90
2022-09-22T01:45:46.565Z,73.60
2022-09-22T01:48:38.037Z,73.70
2022-09-22T01:51:29.000Z,73.60
2022-09-22T01:54:21.722Z,73.70
2022-09-22T01:57:19.468Z,73.60
2022-09-22T02:00:11.148Z,73.80
2022-09-22T02:03:07.540Z,74.00
2022-09-22T02:06:01.727Z,74.00
2022-09-22T02:08:55.398Z,73.90
2022-09-22T02:11:44.020Z,73.40
2022-09-22T02:14:32.060Z,73.50
2022-09-22T02:17:19.874Z,73.70
2022-09-22T02:20:07.825Z,73.90
2022-09-22T02:22:57.154Z,73.70
2022-09-22T02:25:46.120Z,73.90
2022-09-22T02:28:37.862Z,74.40
2022-09-22T02:31:28.719Z,74.00
2022-09-22T02:34:16.525Z,73.90
2022-09-22T02:37:11.576Z,73.70
2022-09-22T02:40:09.060Z,74.00
2022-09-22T02:43:05.895Z,74.20
2022-09-22T02:45:59.328Z,74.20
2022-09-22T02:48:51.226Z,74.40
2022-09-22T02:51:39.022Z,74.90
2022-09-22T02:54:26.424Z,75.00
2022-09-22T02:57:15.217Z,74.30
2022-09-22T03:00:03.692Z,73.80
2022-09-22T03:02:51.259Z,73.90
2022-09-22T03:05:38.824Z,74.10
2022-09-22T03:08:26.471Z,73.90
2022-09-22T03:11:13.728Z,74.10
2022-09-22T03:14:02.438Z,74.00
2022-09-22T03:16:49.768Z,74.60
2022-09-22T03:19:37.129Z,73.70
2022-09-22T03:22:24.559Z,73.80
2022-09-22T03:25:13.050Z,73.60
2022-09-22T03:28:00.531Z,74.50
2022-09-22T03:30:49.456Z,74.10
2022-09-22T03:33:37.151Z,73.80
2022-09-22T03:36:24.567Z,73.80
2022-09-22T03:39:11.790Z,73.80
2022-09-22T03:41:59.174Z,73.80
2022-09-22T03:44:46.499Z,74.20
2022-09-22T03:47:35.026Z,74.50
2022-09-22T03:50:22.886Z,73.90
2022-09-22T03:53:10.207Z,73.90
2022-09-22T03:56:07.152Z,74.40
2022-09-22T03:58:54.568Z,74.70
2022-09-22T04:01:42.613Z,74.50
2022-09-22T04:04:32.583Z,74.50
2022-09-22T04:07:19.934Z,74.60
2022-09-22T04:10:09.064Z,74.20
2022-09-22T04:12:56.700Z,73.90
2022-09-22T04:15:44.257Z,73.80
2022-09-22T04:18:31.783Z,74.10
2022-09-22T04:21:20.924Z,73.90
2022-09-22T04:24:11.292Z,73.80
2022-09-22T04:30:07.980Z,74.00
2022-09-22T04:32:55.489Z,73.80
2022-09-22T04:35:42.986Z,74.20
2022-09-22T04:38:32.003Z,74.30
2022-09-22T04:41:19.851Z,74.30
2022-09-22T04:44:07.086Z,73.80
2022-09-22T04:46:55.947Z,74.10
2022-09-22T04:49:43.360Z,74.30
2022-09-22T04:52:30.728Z,74.80
2022-09-22T04:55:21.067Z,74.50
2022-09-22T04:58:08.707Z,74.80
2022-09-22T05:00:56.672Z,74.30
2022-09-22T05:03:44.427Z,74.10
2022-09-22T05:06:32.124Z,75.00
2022-09-22T05:09:20.828Z,74.30
2022-09-22T05:12:09.657Z,74.20
2022-09-22T05:15:00.312Z,74.20
2022-09-22T05:17:48.787Z,74.10
2022-09-22T05:20:36.183Z,73.80
2022-09-22T05:23:23.588Z,73.90
2022-09-22T05:26:11.028Z,73.70
2022-09-22T05:28:59.848Z,73.70
2022-09-22T05:31:47.362Z,75.20
2022-09-22T05:34:34.741Z,74.70
2022-09-22T05:37:22.299Z,74.90
2022-09-22T05:40:11.319Z,74.70
2022-09-22T05:42:58.940Z,74.50
2022-09-22T05:45:47.751Z,74.30
2022-09-22T05:48:35.255Z,74.30
2022-09-22T05:51:22.709Z,74.60
2022-09-22T05:54:11.134Z,74.50
2022-09-22T05:56:58.477Z,75.00
2022-09-22T05:59:45.753Z,74.70
2022-09-22T06:02:34.713Z,75.10
2022-09-22T06:05:03.817Z,75.50
2022-09-22T06:07:32.863Z,75.60
2022-09-22T06:10:01.803Z,75.70
2022-09-22T06:12:30.965Z,75.60
2022-09-22T06:14:59.913Z,75.80
2022-09-22T06:17:28.891Z,75.90
2022-09-22T06:20:00.822Z,75.80
2022-09-22T06:22:29.785Z,76.80
2022-09-22T06:24:58.796Z,76.10
2022-09-22T06:27:27.763Z,76.90
2022-09-22T06:29:57.051Z,76.70
2022-09-22T06:32:26.042Z,76.90
2022-09-22T06:34:56.116Z,76.80
2022-09-22T06:37:26.432Z,77.20
2022-09-22T06:39:55.416Z,77.20
2022-09-22T06:42:24.475Z,77.00
2022-09-22T06:44:53.995Z,77.10
2022-09-22T06:47:23.789Z,77.20
2022-09-22T06:49:53.610Z,78.20
2022-09-22T06:52:22.590Z,78.20
2022-09-22T06:54:56.753Z,78.20
2022-09-22T06:57:27.956Z,77.80
2022-09-22T06:59:56.933Z,78.00
2022-09-22T07:02:29.447Z,78.10
2022-09-22T07:04:59.157Z,78.20
2022-09-22T07:07:28.932Z,78.30
2022-09-22T07:10:00.395Z,78.40
2022-09-22T07:12:29.996Z,78.70
2022-09-22T07:14:58.945Z,78.80
2022-09-22T07:17:28.267Z,78.70
2022-09-22T07:19:57.642Z,79.70
2022-09-22T07:22:26.935Z,79.00
2022-09-22T07:24:55.872Z,78.70
2022-09-22T07:27:26.351Z,78.90
2022-09-22T07:29:57.562Z,79.50
2022-09-22T07:32:30.262Z,79.40
2022-09-22T07:34:59.583Z,79.30
2022-09-22T07:37:36.171Z,79.40
2022-09-22T07:40:05.948Z,79.60
2022-09-22T07:42:36.272Z,79.90
2022-09-22T07:45:15.421Z,80.50
2022-09-22T07:48:16.186Z,80.00
2022-09-22T07:50:45.207Z,80.10
2022-09-22T07:53:14.230Z,80.30
2022-09-22T07:55:43.276Z,80.40
2022-09-22T07:58:17.262Z,81.20
2022-09-22T08:00:46.546Z,80.40
2022-09-22T08:03:16.456Z,80.60
2022-09-22T08:05:47.017Z,81.20
2022-09-22T08:08:16.917Z,80.60
2022-09-22T08:10:46.641Z,80.60
2022-09-22T08:13:23.994Z,80.70
2022-09-22T08:16:04.229Z,80.30
2022-09-22T08:18:38.016Z,80.20
2022-09-22T08:21:20.201Z,79.90
2022-09-22T08:33:54.776Z,79.10
2022-09-22T08:36:25.862Z,78.10
2022-09-22T08:38:56.171Z,78.60
2022-09-22T08:41:38.485Z,79.20
2022-09-22T08:44:22.949Z,77.60
2022-09-22T08:46:56.096Z,77.50
2022-09-22T08:49:46.586Z,77.60
2022-09-22T08:52:26.631Z,77.80
2022-09-22T08:54:59.827Z,76.70
2022-09-22T08:57:57.029Z,77.30
2022-09-22T09:00:43.470Z,76.40
2022-09-22T09:03:34.037Z,76.00
2022-09-22T09:06:31.723Z,75.40
2022-09-22T09:09:53.222Z,74.50
2022-09-22T09:13:34.092Z,74.10
2022-09-22T09:16:25.736Z,73.20
2022-09-22T09:19:03.444Z,74.10
2022-09-22T09:21:34.436Z,73.30
2022-09-22T09:27:04.572Z,72.60
2022-09-22T09:29:40.387Z,72.50
2022-09-22T09:32:21.405Z,72.30
2022-09-22T09:34:55.719Z,72.10
2022-09-22T09:37:25.624Z,72.20
2022-09-22T09:39:55.104Z,72.10
2022-09-22T09:42:31.480Z,71.40
2022-09-22T09:45:02.799Z,69.40
2022-09-22T09:48:02.176Z,70.40
2022-09-22T09:50:32.980Z,68.80
2022-09-22T09:53:01.983Z,70.00
2022-09-22T09:55:31.722Z,69.90
2022-09-22T09:58:07.182Z,70.00
2022-09-22T10:00:53.786Z,68.00
2022-09-22T10:03:28.729Z,68.20
2022-09-22T10:06:03.017Z,69.00
2022-09-22T10:08:35.111Z,68.20
2022-09-22T10:11:05.430Z,67.30
2022-09-22T10:13:37.319Z,68.60
2022-09-22T10:16:25.130Z,67.20
2022-09-22T10:19:12.808Z,66.40
2022-09-22T10:21:43.136Z,66.60
2022-09-22T10:24:30.530Z,67.70
2022-09-22T10:27:02.581Z,67.20
2022-09-22T10:29:34.380Z,68.60
2022-09-22T10:32:15.000Z,67.00
2022-09-22T10:37:26.800Z,67.30
2022-09-22T10:40:00.095Z,65.70
2022-09-22T10:42:37.432Z,65.00
2022-09-22T10:45:10.994Z,64.50
2022-09-22T10:47:55.854Z,65.80
2022-09-22T10:50:39.202Z,65.60
2022-09-22T10:53:28.480Z,64.70
2022-09-22T10:56:09.462Z,65.30
2022-09-22T10:59:18.509Z,64.10
2022-09-22T11:02:03.996Z,64.10
2022-09-22T11:04:55.436Z,64.10
2022-09-22T11:08:13.980Z,62.60
2022-09-22T11:11:12.066Z,63.20
2022-09-22T11:13:53.780Z,63.50
2022-09-22T11:16:52.245Z,63.40
2022-09-22T11:20:05.556Z,63.40
2022-09-22T11:22:57.304Z,63.30
2022-09-22T11:25:46.406Z,63.60
2022-09-22T11:28:39.348Z,62.10
2022-09-22T11:31:10.580Z,62.30
2022-09-22T11:34:10.758Z,63.20
2022-09-22T11:36:51.914Z,62.00
2022-09-22T11:39:39.820Z,62.40
2022-09-22T11:42:19.996Z,62.10
2022-09-22T11:45:04.212Z,62.80
2022-09-22T11:47:58.948Z,62.30
2022-09-22T11:50:51.270Z,62.30
2022-09-22T11:53:46.702Z,63.30
2022-09-22T11:56:38.313Z,62.30
2022-09-22T11:59:30.205Z,61.90
2022-09-22T12:02:04.732Z,63.80
2022-09-22T12:04:39.440Z,62.80
2022-09-22T12:07:16.373Z,61.90
2022-09-22T12:09:51.104Z,61.50
2022-09-22T12:12:23.237Z,60.70
2022-09-22T12:15:01.166Z,61.50
2022-09-22T12:17:39.534Z,61.00
2022-09-22T12:20:34.588Z,61.30
2022-09-22T12:23:35.165Z,61.00
2022-09-22T12:26:10.577Z,60.10
2022-09-22T12:28:42.579Z,60.60
2022-09-22T12:31:15.410Z,60.70
2022-09-22T12:33:51.047Z,60.10
2022-09-22T12:36:29.689Z,60.20
2022-09-22T12:39:10.514Z,60.00
2022-09-22T12:41:49.282Z,59.90
2022-09-22T12:44:22.807Z,60.20
2022-09-22T12:46:56.599Z,60.60
2022-09-22T12:49:25.963Z,60.50
2022-09-22T12:51:55.083Z,60.20
2022-09-22T12:54:48.195Z,59.70
2022-09-22T12:57:46.192Z,60.00
2022-09-22T13:00:32.265Z,60.10
2022-09-22T13:03:50.382Z,58.60
2022-09-22T13:06:55.758Z,59.30
2022-09-22T13:09:28.523Z,59.90
2022-09-22T13:12:29.136Z,59.20
2022-09-22T13:15:16.686Z,59.60
2022-09-22T13:17:48.435Z,60.00
2022-09-22T13:20:26.689Z,60.10
2022-09-22T13:22:56.764Z,59.50
2022-09-22T13:25:28.921Z,60.90
2022-09-22T13:28:15.250Z,60.50
2022-09-22T13:30:46.373Z,60.10
2022-09-22T13:33:25.328Z,60.20
2022-09-22T13:36:03.821Z,59.80
2022-09-22T13:38:37.275Z,59.60
2022-09-22T13:41:13.534Z,59.80
2022-09-22T13:43:46.647Z,60.40
2022-09-22T13:46:24.286Z,60.20
2022-09-22T13:48:55.251Z,59.50
2022-09-22T13:51:27.802Z,59.40
2022-09-22T13:53:58.612Z,59.60
2022-09-22T13:56:28.074Z,59.90
2022-09-22T13:59:00.197Z,60.20
2022-09-22T14:01:31.810Z,60.00
2022-09-22T14:04:00.907Z,59.40
2022-09-22T14:06:33.868Z,60.50
2022-09-22T14:09:03.162Z,59.90
2022-09-22T14:11:33.540Z,60.10
2022-09-22T14:14:04.431Z,60.20
2022-09-22T14:16:39.880Z,59.90
2022-09-22T14:19:16.163Z,59.50
2022-09-22T14:21:51.307Z,59.50
2022-09-22T14:24:20.823Z,58.00
2022-09-22T14:26:52.807Z,58.70
2022-09-22T14:29:27.078Z,58.80
2022-09-22T14:32:02.775Z,59.80
2022-09-22T14:34:34.467Z,59.30
2022-09-22T14:37:20.504Z,59.20
2022-09-22T14:39:50.809Z,59.30
2022-09-22T14:42:25.706Z,59.00
2022-09-22T14:45:18.496Z,59.20
2022-09-22T14:47:48.328Z,58.80
2022-09-22T14:50:20.259Z,58.80
2022-09-22T14:52:57.574Z,58.60
2022-09-22T14:55:34.434Z,58.70
2022-09-22T14:58:07.640Z,59.00
2022-09-22T15:00:54.555Z,58.70
2022-09-22T15:03:29.409Z,58.90
2022-09-22T15:06:08.656Z,59.00
2022-09-22T15:08:39.276Z,58.70
2022-09-22T15:11:09.115Z,59.20
2022-09-22T15:13:42.942Z,59.80
2022-09-22T15:16:37.159Z,59.90
2022-09-22T15:19:06.705Z,59.70
2022-09-22T15:21:41.252Z,59.90
2022-09-22T15:24:12.859Z,58.90
2022-09-22T15:26:44.628Z,59.00
2022-09-22T15:29:17.331Z,59.10
2022-09-22T15:31:47.124Z,59.00
2022-09-22T15:34:16.524Z,58.90
2022-09-22T15:36:49.989Z,59.90
2022-09-22T15:39:24.399Z,58.90
2022-09-22T15:41:55.322Z,57.90
2022-09-22T15:44:24.296Z,58.00
2022-09-22T15:46:55.170Z,58.80
2022-09-22T15:49:26.467Z,58.50
2022-09-22T15:51:56.776Z,58.60
2022-09-22T15:54:27.552Z,59.50
2022-09-22T15:56:59.210Z,59.20
2022-09-22T15:59:32.507Z,59.20
2022-09-22T16:02:02.745Z,59.20
2022-09-22T16:04:33.715Z,59.90
2022-09-22T16:07:06.080Z,58.80
2022-09-22T16:09:38.616Z,59.20
2022-09-22T16:12:11.006Z,59.40
2022-09-22T16:14:42.516Z,59.50
2022-09-22T16:17:11.494Z,59.50
2022-09-22T16:19:40.468Z,59.50
2022-09-22T16:22:09.431Z,59.60
2022-09-22T16:24:39.760Z,59.90
2022-09-22T16:27:08.688Z,59.60
2022-09-22T16:29:38.399Z,59.70
2022-09-22T16:32:07.901Z,59.50
2022-09-22T16:34:37.405Z,59.30
2022-09-22T16:37:06.444Z,59.50
2022-09-22T16:39:35.392Z,59.40
2022-09-22T16:42:06.275Z,59.60
2022-09-22T16:44:35.230Z,59.70
2022-09-22T16:47:04.343Z,59.50
2022-09-22T16:49:34.133Z,60.30
2022-09-22T16:52:03.225Z,60.60
2022-09-22T16:54:34.512Z,60.60
2022-09-22T16:57:04.996Z,61.10
2022-09-22T16:59:34.487Z,61.10
2022-09-22T17:02:03.647Z,60.40
2022-09-22T17:04:33.043Z,60.90
2022-09-22T17:07:02.059Z,61.20
2022-09-22T17:09:32.218Z,60.50
2022-09-22T17:12:06.559Z,61.00
2022-09-22T17:14:37.061Z,61.00
2022-09-22T17:17:07.505Z,61.00
2022-09-22T17:19:36.625Z,61.90
2022-09-22T17:22:05.720Z,61.80
2022-09-22T17:24:34.693Z,60.90
2022-09-22T17:27:03.688Z,60.80
2022-09-22T17:29:33.227Z,60.90
2022-09-22T17:32:05.804Z,61.80
2022-09-22T17:34:53.012Z,60.80
2022-09-22T17:37:40.264Z,60.80
2022-09-22T17:40:27.771Z,61.10
2022-09-22T17:43:15.300Z,61.50
2022-09-22T17:46:02.908Z,61.30
2022-09-22T17:49:08.897Z,62.50
2022-09-22T17:52:13.751Z,62.30
2022-09-22T17:55:09.686Z,62.80
2022-09-22T17:57:57.332Z,62.60
2022-09-22T18:00:44.543Z,62.10
2022-09-22T18:03:31.713Z,62.40
2022-09-22T18:06:20.938Z,62.70
2022-09-22T18:09:08.338Z,62.80
2022-09-22T18:11:55.513Z,63.20
2022-09-22T18:14:45.993Z,63.30
2022-09-22T18:17:40.218Z,62.70
2022-09-22T18:20:27.954Z,63.30
2022-09-22T18:23:16.743Z,63.50
2022-09-22T18:26:04.356Z,63.80
2022-09-22T18:28:54.026Z,64.60
2022-09-22T18:31:42.003Z,63.90
2022-09-22T18:34:31.831Z,64.10
2022-09-22T18:37:20.504Z,63.70
2022-09-22T18:40:12.600Z,63.90
2022-09-22T18:43:00.348Z,64.10
2022-09-22T18:45:47.706Z,64.10
2022-09-22T18:48:34.795Z,64.00
2022-09-22T18:51:22.282Z,64.20
2022-09-22T18:54:15.325Z,63.80
2022-09-22T18:57:04.634Z,63.80
2022-09-22T18:59:52.374Z,63.90
2022-09-22T19:02:39.957Z,64.10
2022-09-22T19:05:28.379Z,65.10
2022-09-22T19:08:15.560Z,63.90
2022-09-22T19:11:03.134Z,64.30
2022-09-22T19:13:52.713Z,64.20
2022-09-22T19:16:42.149Z,64.40
2022-09-22T19:19:29.603Z,64.80
2022-09-22T19:22:18.077Z,65.00
2022-09-22T19:25:06.816Z,64.80
2022-09-22T19:27:54.712Z,65.00
2022-09-22T19:30:43.637Z,65.10
2022-09-22T19:33:31.122Z,65.40
2022-09-22T19:36:18.353Z,65.10
2022-09-22T19:39:08.485Z,65.50
2022-09-22T19:41:56.095Z,65.50
2022-09-22T19:44:43.572Z,66.10
2022-09-22T19:47:32.161Z,65.60
2022-09-22T19:50:20.022Z,66.40
2022-09-22T19:53:08.875Z,66.00
2022-09-22T19:55:56.500Z,65.80
2022-09-22T19:58:44.878Z,65.80
2022-09-22T20:01:35.469Z,66.20
2022-09-22T20:04:24.506Z,66.00
2022-09-22T20:07:12.150Z,65.80
2022-09-22T20:10:02.110Z,66.50
2022-09-22T20:12:50.085Z,66.70
2022-09-22T20:15:38.136Z,66.40
2022-09-22T20:18:25.843Z,66.10
2022-09-22T20:21:15.969Z,66.50
2022-09-22T20:24:05.064Z,66.40
2022-09-22T20:26:54.307Z,66.20
2022-09-22T20:29:41.818Z,67.50
2022-09-22T20:32:32.427Z,66.50
2022-09-22T20:35:21.991Z,67.60
2022-09-22T20:38:12.755Z,67.00
2022-09-22T20:41:02.629Z,67.10
2022-09-22T20:43:50.793Z,67.20
2022-09-22T20:46:38.262Z,67.00
2022-09-22T20:49:26.091Z,67.10
2022-09-22T20:52:15.579Z,68.00
2022-09-22T20:55:04.674Z,66.90
2022-09-22T20:57:51.853Z,67.20
2022-09-22T21:00:38.991Z,67.80
2022-09-22T21:03:26.373Z,67.30
2022-09-22T21:06:15.893Z,67.30
2022-09-22T21:09:20.786Z,67.50
2022-09-22T21:12:09.661Z,67.60
2022-09-22T21:14:57.508Z,67.80
2022-09-22T21:17:44.879Z,67.70
2022-09-22T21:20:32.283Z,67.20
2022-09-22T21:23:19.479Z,67.60
2022-09-22T21:26:08.185Z,67.90
2022-09-22T21:28:57.221Z,68.10
2022-09-22T21:31:45.971Z,67.90
2022-09-22T21:34:33.231Z,68.10
2022-09-22T21:37:23.484Z,68.00
2022-09-22T21:40:11.138Z,67.70
2022-09-22T21:42:58.666Z,67.90
2022-09-22T21:45:47.402Z,67.80
2022-09-22T21:48:37.112Z,69.00
2022-09-22T21:51:24.726Z,68.40
2022-09-22T21:54:15.772Z,67.90
2022-09-22T21:57:03.210Z,68.60
2022-09-22T21:59:52.881Z,68.40
2022-09-22T22:03:14.613Z,68.60
2022-09-22T22:06:08.532Z,68.20
2022-09-22T22:09:02.360Z,68.60
2022-09-22T22:11:53.841Z,68.20
2022-09-22T22:14:41.171Z,68.60
2022-09-22T22:17:28.425Z,68.30
2022-09-22T22:20:17.189Z,68.30
2022-09-22T22:23:04.773Z,68.40
2022-09-22T22:25:59.024Z,68.40
2022-09-22T22:28:46.781Z,68.60
2022-09-22T22:31:35.244Z,68.10
2022-09-22T22:34:25.601Z,68.50
2022-09-22T22:37:14.344Z,69.00
2022-09-22T22:40:02.462Z,69.30
2022-09-22T22:42:50.137Z,68.60
2022-09-22T22:45:37.333Z,68.80
2022-09-22T22:48:24.889Z,69.10
2022-09-22T22:51:15.556Z,68.80
2022-09-22T22:54:05.738Z,68.80
2022-09-22T22:56:53.310Z,69.00
2022-09-22T22:59:40.524Z,68.80
2022-09-22T23:02:31.054Z,68.30
2022-09-22T23:05:18.812Z,68.40
2022-09-22T23:08:06.548Z,68.50
2022-09-22T23:11:02.606Z,68.40
2022-09-22T23:13:53.659Z,68.70
2022-09-22T23:16:44.211Z,68.60
2022-09-22T23:19:31.444Z,68.70
2022-09-22T23:22:18.577Z,68.80
2022-09-22T23:25:06.596Z,69.20
2022-09-22T23:27:55.250Z,68.90
2022-09-22T23:30:43.037Z,69.20
2022-09-22T23:33:31.183Z,69.00
2022-09-22T23:36:20.605Z,68.90
2022-09-22T23:39:08.127Z,69.40
2022-09-22T23:41:55.610Z,69.20
2022-09-22T23:44:44.183Z,69.40
2022-09-22T23:47:32.910Z,69.70
2022-09-22T23:50:20.465Z,69.60
2022-09-22T23:53:08.424Z,69.60
2022-09-22T23:55:55.656Z,69.60
2022-09-22T23:58:42.957Z,69.80
